sensor_id;sensor_type;location;lat;lon;timestamp;temperature;humidity
44705;DHT22;30431;48.520;9.046;2024-01-16T00:01:32;0.70;92.70
44705;DHT22;30431;48.520;9.046;2024-01-16T00:03:59;0.70;92.50
44705;DHT22;30431;48.520;9.046;2024-01-16T00:06:29;0.70;93.10
44705;DHT22;30431;48.520;9.046;2024-01-16T00:08:56;0.70;93.10
44705;DHT22;30431;48.520;9.046;2024-01-16T00:11:23;0.70;93.60
44705;DHT22;30431;48.520;9.046;2024-01-16T00:13:52;0.70;92.70
44705;DHT22;30431;48.520;9.046;2024-01-16T00:16:20;0.70;92.40
44705;DHT22;30431;48.520;9.046;2024-01-16T00:18:47;0.70;92.50
44705;DHT22;30431;48.520;9.046;2024-01-16T00:21:16;0.60;92.60
44705;DHT22;30431;48.520;9.046;2024-01-16T00:23:46;0.60;92.40
44705;DHT22;30431;48.520;9.046;2024-01-16T00:26:21;0.60;92.10
44705;DHT22;30431;48.520;9.046;2024-01-16T00:28:48;0.60;92.40
44705;DHT22;30431;48.520;9.046;2024-01-16T00:31:15;0.60;93.00
44705;DHT22;30431;48.520;9.046;2024-01-16T00:33:42;0.60;93.20
44705;DHT22;30431;48.520;9.046;2024-01-16T00:36:11;0.60;93.10
44705;DHT22;30431;48.520;9.046;2024-01-16T00:38:38;0.70;93.60
44705;DHT22;30431;48.520;9.046;2024-01-16T00:41:05;0.70;93.40
44705;DHT22;30431;48.520;9.046;2024-01-16T00:43:33;0.70;93.10
44705;DHT22;30431;48.520;9.046;2024-01-16T00:46:02;0.70;93.30
44705;DHT22;30431;48.520;9.046;2024-01-16T00:48:31;0.80;93.60
44705;DHT22;30431;48.520;9.046;2024-01-16T00:50:58;0.80;93.50
44705;DHT22;30431;48.520;9.046;2024-01-16T00:53:31;0.80;93.90
44705;DHT22;30431;48.520;9.046;2024-01-16T00:56:06;0.80;93.40
44705;DHT22;30431;48.520;9.046;2024-01-16T00:58:33;0.80;93.60
44705;DHT22;30431;48.520;9.046;2024-01-16T01:01:05;0.90;93.50
44705;DHT22;30431;48.520;9.046;2024-01-16T01:03:32;0.80;93.50
44705;DHT22;30431;48.520;9.046;2024-01-16T01:06:00;0.80;93.70
44705;DHT22;30431;48.520;9.046;2024-01-16T01:08:28;0.80;93.80
44705;DHT22;30431;48.520;9.046;2024-01-16T01:10:57;0.80;93.70
44705;DHT22;30431;48.520;9.046;2024-01-16T01:13:24;0.80;93.60
44705;DHT22;30431;48.520;9.046;2024-01-16T01:15:52;0.80;93.90
44705;DHT22;30431;48.520;9.046;2024-01-16T01:18:19;0.80;93.30
44705;DHT22;30431;48.520;9.046;2024-01-16T01:20:46;0.70;93.30
44705;DHT22;30431;48.520;9.046;2024-01-16T01:23:13;0.80;93.40
44705;DHT22;30431;48.520;9.046;2024-01-16T01:25:41;0.80;93.60
44705;DHT22;30431;48.520;9.046;2024-01-16T01:28:08;0.80;93.10
44705;DHT22;30431;48.520;9.046;2024-01-16T01:30:35;0.80;93.20
44705;DHT22;30431;48.520;9.046;2024-01-16T01:33:03;0.80;93.60
44705;DHT22;30431;48.520;9.046;2024-01-16T01:35:32;0.80;93.40
44705;DHT22;30431;48.520;9.046;2024-01-16T01:37:59;0.70;93.80
44705;DHT22;30431;48.520;9.046;2024-01-16T01:40:28;0.70;93.70
44705;DHT22;30431;48.520;9.046;2024-01-16T01:42:55;0.70;93.90
44705;DHT22;30431;48.520;9.046;2024-01-16T01:45:22;0.70;93.50
44705;DHT22;30431;48.520;9.046;2024-01-16T01:47:51;0.70;93.70
44705;DHT22;30431;48.520;9.046;2024-01-16T01:50:18;0.70;94.10
44705;DHT22;30431;48.520;9.046;2024-01-16T01:52:48;0.60;94.20
44705;DHT22;30431;48.520;9.046;2024-01-16T01:55:17;0.60;94.40
44705;DHT22;30431;48.520;9.046;2024-01-16T01:57:51;0.60;94.00
44705;DHT22;30431;48.520;9.046;2024-01-16T02:00:21;0.60;93.50
44705;DHT22;30431;48.520;9.046;2024-01-16T02:02:48;0.60;93.80
44705;DHT22;30431;48.520;9.046;2024-01-16T02:05:22;0.60;94.20
44705;DHT22;30431;48.520;9.046;2024-01-16T02:07:49;0.60;94.30
44705;DHT22;30431;48.520;9.046;2024-01-16T02:10:18;0.60;94.30
44705;DHT22;30431;48.520;9.046;2024-01-16T02:12:45;0.60;94.20
44705;DHT22;30431;48.520;9.046;2024-01-16T02:15:12;0.60;93.90
44705;DHT22;30431;48.520;9.046;2024-01-16T02:17:44;0.70;93.90
44705;DHT22;30431;48.520;9.046;2024-01-16T02:20:11;0.60;93.50
44705;DHT22;30431;48.520;9.046;2024-01-16T02:22:39;0.70;93.20
44705;DHT22;30431;48.520;9.046;2024-01-16T02:25:07;0.60;92.70
44705;DHT22;30431;48.520;9.046;2024-01-16T02:27:34;0.70;92.90
44705;DHT22;30431;48.520;9.046;2024-01-16T02:30:01;0.60;93.00
44705;DHT22;30431;48.520;9.046;2024-01-16T02:32:30;0.60;92.70
44705;DHT22;30431;48.520;9.046;2024-01-16T02:34:59;0.50;92.60
44705;DHT22;30431;48.520;9.046;2024-01-16T02:37:26;0.50;92.70
44705;DHT22;30431;48.520;9.046;2024-01-16T02:39:53;0.40;92.80
44705;DHT22;30431;48.520;9.046;2024-01-16T02:42:22;0.40;93.20
44705;DHT22;30431;48.520;9.046;2024-01-16T02:44:49;0.30;93.40
44705;DHT22;30431;48.520;9.046;2024-01-16T02:47:16;0.30;93.50
44705;DHT22;30431;48.520;9.046;2024-01-16T02:49:46;0.20;93.40
44705;DHT22;30431;48.520;9.046;2024-01-16T02:52:13;0.20;93.40
44705;DHT22;30431;48.520;9.046;2024-01-16T02:54:40;0.10;93.30
44705;DHT22;30431;48.520;9.046;2024-01-16T02:57:09;0.00;93.20
44705;DHT22;30431;48.520;9.046;2024-01-16T02:59:39;-0.10;93.60
44705;DHT22;30431;48.520;9.046;2024-01-16T03:02:06;-0.30;94.00
44705;DHT22;30431;48.520;9.046;2024-01-16T03:04:33;-0.30;94.40
44705;DHT22;30431;48.520;9.046;2024-01-16T03:07:00;-0.40;94.60
44705;DHT22;30431;48.520;9.046;2024-01-16T03:09:29;-0.40;94.20
44705;DHT22;30431;48.520;9.046;2024-01-16T03:11:56;-0.40;94.10
44705;DHT22;30431;48.520;9.046;2024-01-16T03:14:24;-0.50;94.20
44705;DHT22;30431;48.520;9.046;2024-01-16T03:16:51;-0.60;94.10
44705;DHT22;30431;48.520;9.046;2024-01-16T03:19:21;-0.60;94.40
44705;DHT22;30431;48.520;9.046;2024-01-16T03:21:48;-0.70;94.50
44705;DHT22;30431;48.520;9.046;2024-01-16T03:24:15;-0.80;94.80
44705;DHT22;30431;48.520;9.046;2024-01-16T03:26:43;-0.90;95.10
44705;DHT22;30431;48.520;9.046;2024-01-16T03:29:12;-1.00;95.30
44705;DHT22;30431;48.520;9.046;2024-01-16T03:31:42;-1.10;95.50
44705;DHT22;30431;48.520;9.046;2024-01-16T03:34:11;-1.20;96.00
44705;DHT22;30431;48.520;9.046;2024-01-16T03:36:38;-1.30;96.40
44705;DHT22;30431;48.520;9.046;2024-01-16T03:39:05;-1.40;96.60
44705;DHT22;30431;48.520;9.046;2024-01-16T03:41:36;-1.50;97.00
44705;DHT22;30431;48.520;9.046;2024-01-16T03:44:05;-1.60;97.50
44705;DHT22;30431;48.520;9.046;2024-01-16T03:46:34;-1.70;97.40
44705;DHT22;30431;48.520;9.046;2024-01-16T03:49:01;-1.80;97.70
44705;DHT22;30431;48.520;9.046;2024-01-16T03:51:30;-1.80;97.80
44705;DHT22;30431;48.520;9.046;2024-01-16T03:53:57;-1.90;97.90
44705;DHT22;30431;48.520;9.046;2024-01-16T03:56:26;-2.00;97.90
44705;DHT22;30431;48.520;9.046;2024-01-16T03:58:53;-2.00;98.00
44705;DHT22;30431;48.520;9.046;2024-01-16T04:01:32;-2.00;98.00
44705;DHT22;30431;48.520;9.046;2024-01-16T04:04:00;-2.10;97.80
44705;DHT22;30431;48.520;9.046;2024-01-16T04:06:27;-2.10;98.00
44705;DHT22;30431;48.520;9.046;2024-01-16T04:08:55;-2.20;98.10
44705;DHT22;30431;48.520;9.046;2024-01-16T04:11:22;-2.30;98.20
44705;DHT22;30431;48.520;9.046;2024-01-16T04:13:50;-2.40;98.30
44705;DHT22;30431;48.520;9.046;2024-01-16T04:16:19;-2.40;98.70
44705;DHT22;30431;48.520;9.046;2024-01-16T04:18:46;-2.50;98.70
44705;DHT22;30431;48.520;9.046;2024-01-16T04:21:13;-2.50;98.80
44705;DHT22;30431;48.520;9.046;2024-01-16T04:23:46;-2.60;98.90
44705;DHT22;30431;48.520;9.046;2024-01-16T04:26:13;-2.60;98.70
44705;DHT22;30431;48.520;9.046;2024-01-16T04:28:43;-2.60;98.60
44705;DHT22;30431;48.520;9.046;2024-01-16T04:31:12;-2.70;98.60
44705;DHT22;30431;48.520;9.046;2024-01-16T04:33:40;-2.70;98.40
44705;DHT22;30431;48.520;9.046;2024-01-16T04:36:07;-2.70;98.40
44705;DHT22;30431;48.520;9.046;2024-01-16T04:38:34;-2.80;98.60
44705;DHT22;30431;48.520;9.046;2024-01-16T04:41:04;-2.90;98.60
44705;DHT22;30431;48.520;9.046;2024-01-16T04:43:33;-2.90;98.70
44705;DHT22;30431;48.520;9.046;2024-01-16T04:46:08;-3.00;99.00
44705;DHT22;30431;48.520;9.046;2024-01-16T04:48:35;-3.10;99.20
44705;DHT22;30431;48.520;9.046;2024-01-16T04:51:09;-3.10;99.20
44705;DHT22;30431;48.520;9.046;2024-01-16T04:53:40;-3.20;99.30
44705;DHT22;30431;48.520;9.046;2024-01-16T04:56:07;-3.20;99.30
44705;DHT22;30431;48.520;9.046;2024-01-16T04:58:37;-3.20;99.10
44705;DHT22;30431;48.520;9.046;2024-01-16T05:01:09;-3.20;98.90
44705;DHT22;30431;48.520;9.046;2024-01-16T05:03:36;-3.20;98.60
44705;DHT22;30431;48.520;9.046;2024-01-16T05:06:03;-3.20;98.50
44705;DHT22;30431;48.520;9.046;2024-01-16T05:08:31;-3.30;98.70
44705;DHT22;30431;48.520;9.046;2024-01-16T05:11:00;-3.30;99.10
44705;DHT22;30431;48.520;9.046;2024-01-16T05:13:30;-3.30;99.30
44705;DHT22;30431;48.520;9.046;2024-01-16T05:15:57;-3.30;99.20
44705;DHT22;30431;48.520;9.046;2024-01-16T05:18:28;-3.40;99.40
44705;DHT22;30431;48.520;9.046;2024-01-16T05:20:59;-3.30;99.80
44705;DHT22;30431;48.520;9.046;2024-01-16T05:23:26;-3.30;99.70
44705;DHT22;30431;48.520;9.046;2024-01-16T05:25:54;-3.20;99.30
44705;DHT22;30431;48.520;9.046;2024-01-16T05:28:21;-3.20;98.90
44705;DHT22;30431;48.520;9.046;2024-01-16T05:30:48;-3.20;98.80
44705;DHT22;30431;48.520;9.046;2024-01-16T05:33:18;-3.30;98.80
44705;DHT22;30431;48.520;9.046;2024-01-16T05:35:49;-3.30;99.00
44705;DHT22;30431;48.520;9.046;2024-01-16T05:38:17;-3.30;98.90
44705;DHT22;30431;48.520;9.046;2024-01-16T05:40:47;-3.30;98.80
44705;DHT22;30431;48.520;9.046;2024-01-16T05:43:16;-3.30;98.50
44705;DHT22;30431;48.520;9.046;2024-01-16T05:45:48;-3.40;98.50
44705;DHT22;30431;48.520;9.046;2024-01-16T05:48:15;-3.40;99.30
44705;DHT22;30431;48.520;9.046;2024-01-16T05:50:42;-3.40;99.40
44705;DHT22;30431;48.520;9.046;2024-01-16T05:53:09;-3.40;99.70
44705;DHT22;30431;48.520;9.046;2024-01-16T05:55:36;-3.50;99.70
44705;DHT22;30431;48.520;9.046;2024-01-16T05:58:03;-3.50;99.70
44705;DHT22;30431;48.520;9.046;2024-01-16T06:00:30;-3.50;99.30
44705;DHT22;30431;48.520;9.046;2024-01-16T06:02:57;-3.60;98.80
44705;DHT22;30431;48.520;9.046;2024-01-16T06:05:24;-3.60;99.40
44705;DHT22;30431;48.520;9.046;2024-01-16T06:07:52;-3.60;99.40
44705;DHT22;30431;48.520;9.046;2024-01-16T06:10:19;-3.70;99.30
44705;DHT22;30431;48.520;9.046;2024-01-16T06:12:46;-3.70;99.60
44705;DHT22;30431;48.520;9.046;2024-01-16T06:15:13;-3.80;99.40
44705;DHT22;30431;48.520;9.046;2024-01-16T06:17:44;-3.80;99.30
44705;DHT22;30431;48.520;9.046;2024-01-16T06:20:13;-3.90;99.00
44705;DHT22;30431;48.520;9.046;2024-01-16T06:22:43;-4.00;99.20
44705;DHT22;30431;48.520;9.046;2024-01-16T06:25:10;-4.00;98.90
44705;DHT22;30431;48.520;9.046;2024-01-16T06:27:37;-4.10;98.80
44705;DHT22;30431;48.520;9.046;2024-01-16T06:30:04;-4.20;98.90
44705;DHT22;30431;48.520;9.046;2024-01-16T06:32:31;-4.20;99.10
44705;DHT22;30431;48.520;9.046;2024-01-16T06:34:59;-4.20;99.50
44705;DHT22;30431;48.520;9.046;2024-01-16T06:37:32;-4.00;99.60
44705;DHT22;30431;48.520;9.046;2024-01-16T06:39:59;-4.00;99.80
44705;DHT22;30431;48.520;9.046;2024-01-16T06:42:28;-3.90;99.90
44705;DHT22;30431;48.520;9.046;2024-01-16T06:44:56;-3.90;99.90
44705;DHT22;30431;48.520;9.046;2024-01-16T06:47:23;-3.90;99.90
44705;DHT22;30431;48.520;9.046;2024-01-16T06:49:51;-3.90;99.70
44705;DHT22;30431;48.520;9.046;2024-01-16T06:52:18;-3.90;99.60
44705;DHT22;30431;48.520;9.046;2024-01-16T06:54:47;-3.90;99.40
44705;DHT22;30431;48.520;9.046;2024-01-16T06:57:19;-3.90;98.80
44705;DHT22;30431;48.520;9.046;2024-01-16T06:59:48;-3.90;98.80
44705;DHT22;30431;48.520;9.046;2024-01-16T07:02:15;-3.90;99.30
44705;DHT22;30431;48.520;9.046;2024-01-16T07:04:46;-3.80;99.60
44705;DHT22;30431;48.520;9.046;2024-01-16T07:07:13;-3.80;99.30
44705;DHT22;30431;48.520;9.046;2024-01-16T07:09:42;-3.90;99.20
44705;DHT22;30431;48.520;9.046;2024-01-16T07:12:09;-3.90;98.80
44705;DHT22;30431;48.520;9.046;2024-01-16T07:14:37;-3.90;98.70
44705;DHT22;30431;48.520;9.046;2024-01-16T07:17:06;-4.00;98.50
44705;DHT22;30431;48.520;9.046;2024-01-16T07:19:41;-4.00;98.50
44705;DHT22;30431;48.520;9.046;2024-01-16T07:22:08;-4.10;98.50
44705;DHT22;30431;48.520;9.046;2024-01-16T07:24:36;-4.10;99.10
44705;DHT22;30431;48.520;9.046;2024-01-16T07:27:04;-4.20;98.90
44705;DHT22;30431;48.520;9.046;2024-01-16T07:29:31;-4.20;98.90
44705;DHT22;30431;48.520;9.046;2024-01-16T07:31:58;-4.20;99.00
44705;DHT22;30431;48.520;9.046;2024-01-16T07:34:27;-4.20;99.20
44705;DHT22;30431;48.520;9.046;2024-01-16T07:36:54;-4.20;99.50
44705;DHT22;30431;48.520;9.046;2024-01-16T07:39:22;-4.10;99.40
44705;DHT22;30431;48.520;9.046;2024-01-16T07:41:49;-4.10;99.30
44705;DHT22;30431;48.520;9.046;2024-01-16T07:44:19;-4.00;99.50
44705;DHT22;30431;48.520;9.046;2024-01-16T07:46:46;-3.90;99.20
44705;DHT22;30431;48.520;9.046;2024-01-16T07:49:13;-3.80;99.00
44705;DHT22;30431;48.520;9.046;2024-01-16T07:51:43;-3.70;98.90
44705;DHT22;30431;48.520;9.046;2024-01-16T07:54:10;-3.60;98.30
44705;DHT22;30431;48.520;9.046;2024-01-16T07:56:37;-3.50;98.30
44705;DHT22;30431;48.520;9.046;2024-01-16T07:59:05;-3.40;98.20
44705;DHT22;30431;48.520;9.046;2024-01-16T08:01:40;-3.30;98.00
44705;DHT22;30431;48.520;9.046;2024-01-16T08:04:07;-3.20;97.40
44705;DHT22;30431;48.520;9.046;2024-01-16T08:06:35;-3.20;96.90
44705;DHT22;30431;48.520;9.046;2024-01-16T08:09:02;-3.10;97.10
44705;DHT22;30431;48.520;9.046;2024-01-16T08:11:32;-3.00;96.60
44705;DHT22;30431;48.520;9.046;2024-01-16T08:14:01;-3.00;96.30
44705;DHT22;30431;48.520;9.046;2024-01-16T08:16:28;-3.00;96.10
44705;DHT22;30431;48.520;9.046;2024-01-16T08:18:55;-2.90;96.00
44705;DHT22;30431;48.520;9.046;2024-01-16T08:21:22;-2.90;96.50
44705;DHT22;30431;48.520;9.046;2024-01-16T08:23:49;-2.80;96.70
44705;DHT22;30431;48.520;9.046;2024-01-16T08:26:16;-2.70;96.90
44705;DHT22;30431;48.520;9.046;2024-01-16T08:28:44;-2.50;96.10
44705;DHT22;30431;48.520;9.046;2024-01-16T08:31:16;-2.40;95.70
44705;DHT22;30431;48.520;9.046;2024-01-16T08:33:45;-2.40;95.10
44705;DHT22;30431;48.520;9.046;2024-01-16T08:36:18;-2.30;95.20
44705;DHT22;30431;48.520;9.046;2024-01-16T08:38:45;-2.30;95.20
44705;DHT22;30431;48.520;9.046;2024-01-16T08:41:14;-2.20;94.80
44705;DHT22;30431;48.520;9.046;2024-01-16T08:43:41;-2.10;95.00
44705;DHT22;30431;48.520;9.046;2024-01-16T08:46:09;-2.00;94.90
44705;DHT22;30431;48.520;9.046;2024-01-16T08:48:38;-1.90;94.80
44705;DHT22;30431;48.520;9.046;2024-01-16T08:51:11;-1.70;94.80
44705;DHT22;30431;48.520;9.046;2024-01-16T08:53:44;-1.60;94.20
44705;DHT22;30431;48.520;9.046;2024-01-16T08:56:11;-1.60;94.00
44705;DHT22;30431;48.520;9.046;2024-01-16T08:58:41;-1.50;93.60
44705;DHT22;30431;48.520;9.046;2024-01-16T09:01:09;-1.50;93.30
44705;DHT22;30431;48.520;9.046;2024-01-16T09:03:37;-1.50;93.80
44705;DHT22;30431;48.520;9.046;2024-01-16T09:06:06;-1.30;93.40
44705;DHT22;30431;48.520;9.046;2024-01-16T09:08:33;-1.20;93.60
44705;DHT22;30431;48.520;9.046;2024-01-16T09:11:02;-1.00;93.90
44705;DHT22;30431;48.520;9.046;2024-01-16T09:13:29;-0.90;92.60
44705;DHT22;30431;48.520;9.046;2024-01-16T09:15:56;-0.70;92.10
44705;DHT22;30431;48.520;9.046;2024-01-16T09:18:28;-0.60;90.90
44705;DHT22;30431;48.520;9.046;2024-01-16T09:20:55;-0.50;90.20
44705;DHT22;30431;48.520;9.046;2024-01-16T09:23:27;-0.50;90.30
44705;DHT22;30431;48.520;9.046;2024-01-16T09:25:56;-0.30;90.60
44705;DHT22;30431;48.520;9.046;2024-01-16T09:28:23;-0.30;90.30
44705;DHT22;30431;48.520;9.046;2024-01-16T09:30:53;-0.10;89.80
44705;DHT22;30431;48.520;9.046;2024-01-16T09:33:23;-0.20;89.00
44705;DHT22;30431;48.520;9.046;2024-01-16T09:35:52;-0.20;89.20
44705;DHT22;30431;48.520;9.046;2024-01-16T09:38:19;-0.10;88.20
44705;DHT22;30431;48.520;9.046;2024-01-16T09:40:49;0.00;88.70
44705;DHT22;30431;48.520;9.046;2024-01-16T09:43:17;0.20;89.00
44705;DHT22;30431;48.520;9.046;2024-01-16T09:45:44;0.30;88.40
44705;DHT22;30431;48.520;9.046;2024-01-16T09:48:17;0.50;88.70
44705;DHT22;30431;48.520;9.046;2024-01-16T09:50:44;0.70;87.00
44705;DHT22;30431;48.520;9.046;2024-01-16T09:53:16;0.80;87.10
44705;DHT22;30431;48.520;9.046;2024-01-16T09:55:43;0.70;84.70
44705;DHT22;30431;48.520;9.046;2024-01-16T09:58:12;0.70;85.30
44705;DHT22;30431;48.520;9.046;2024-01-16T10:00:43;0.60;86.20
44705;DHT22;30431;48.520;9.046;2024-01-16T10:03:12;0.60;87.30
44705;DHT22;30431;48.520;9.046;2024-01-16T10:05:44;0.50;86.90
44705;DHT22;30431;48.520;9.046;2024-01-16T10:08:15;0.40;86.50
44705;DHT22;30431;48.520;9.046;2024-01-16T10:10:44;0.40;86.80
44705;DHT22;30431;48.520;9.046;2024-01-16T10:13:17;0.30;87.30
44705;DHT22;30431;48.520;9.046;2024-01-16T10:15:44;0.30;87.80
44705;DHT22;30431;48.520;9.046;2024-01-16T10:18:30;0.30;86.10
44705;DHT22;30431;48.520;9.046;2024-01-16T10:20:57;0.20;85.70
44705;DHT22;30431;48.520;9.046;2024-01-16T10:28:34;0.10;85.50
44705;DHT22;30431;48.520;9.046;2024-01-16T10:31:08;0.10;86.30
44705;DHT22;30431;48.520;9.046;2024-01-16T10:33:40;0.00;88.50
44705;DHT22;30431;48.520;9.046;2024-01-16T10:36:12;0.10;87.80
44705;DHT22;30431;48.520;9.046;2024-01-16T10:38:40;0.10;88.10
44705;DHT22;30431;48.520;9.046;2024-01-16T10:41:13;0.10;86.20
44705;DHT22;30431;48.520;9.046;2024-01-16T10:43:41;0.10;87.10
44705;DHT22;30431;48.520;9.046;2024-01-16T10:49:01;0.20;88.20
44705;DHT22;30431;48.520;9.046;2024-01-16T10:51:31;0.20;86.50
44705;DHT22;30431;48.520;9.046;2024-01-16T10:54:06;0.20;86.30
44705;DHT22;30431;48.520;9.046;2024-01-16T10:56:44;0.20;86.80
44705;DHT22;30431;48.520;9.046;2024-01-16T10:59:24;0.20;86.80
44705;DHT22;30431;48.520;9.046;2024-01-16T11:01:55;0.20;86.50
44705;DHT22;30431;48.520;9.046;2024-01-16T11:04:29;0.30;87.60
44705;DHT22;30431;48.520;9.046;2024-01-16T11:06:59;0.40;89.60
44705;DHT22;30431;48.520;9.046;2024-01-16T11:09:31;0.50;88.80
44705;DHT22;30431;48.520;9.046;2024-01-16T11:11:58;0.70;87.50
44705;DHT22;30431;48.520;9.046;2024-01-16T11:14:30;0.80;88.00
44705;DHT22;30431;48.520;9.046;2024-01-16T11:16:59;0.90;87.50
44705;DHT22;30431;48.520;9.046;2024-01-16T11:19:28;1.00;87.00
44705;DHT22;30431;48.520;9.046;2024-01-16T11:22:15;1.10;87.50
44705;DHT22;30431;48.520;9.046;2024-01-16T11:24:43;1.10;85.70
44705;DHT22;30431;48.520;9.046;2024-01-16T11:27:24;1.20;85.50
44705;DHT22;30431;48.520;9.046;2024-01-16T11:29:51;1.10;85.20
44705;DHT22;30431;48.520;9.046;2024-01-16T11:32:53;1.20;85.00
44705;DHT22;30431;48.520;9.046;2024-01-16T11:35:35;1.20;85.50
44705;DHT22;30431;48.520;9.046;2024-01-16T11:38:06;1.20;85.30
44705;DHT22;30431;48.520;9.046;2024-01-16T11:40:33;1.20;85.00
44705;DHT22;30431;48.520;9.046;2024-01-16T11:46:01;1.20;86.00
44705;DHT22;30431;48.520;9.046;2024-01-16T11:48:28;1.20;85.10
44705;DHT22;30431;48.520;9.046;2024-01-16T11:50:55;1.30;85.00
44705;DHT22;30431;48.520;9.046;2024-01-16T11:53:34;1.30;83.80
44705;DHT22;30431;48.520;9.046;2024-01-16T11:59:18;1.30;85.40
44705;DHT22;30431;48.520;9.046;2024-01-16T12:01:50;1.40;86.10
44705;DHT22;30431;48.520;9.046;2024-01-16T12:04:19;1.60;85.00
44705;DHT22;30431;48.520;9.046;2024-01-16T12:06:57;1.50;84.60
44705;DHT22;30431;48.520;9.046;2024-01-16T12:09:30;1.60;84.50
44705;DHT22;30431;48.520;9.046;2024-01-16T12:11:58;1.60;83.40
44705;DHT22;30431;48.520;9.046;2024-01-16T12:14:26;1.60;84.00
44705;DHT22;30431;48.520;9.046;2024-01-16T12:17:01;1.60;83.00
44705;DHT22;30431;48.520;9.046;2024-01-16T12:19:39;1.70;82.40
44705;DHT22;30431;48.520;9.046;2024-01-16T12:22:10;1.70;80.40
44705;DHT22;30431;48.520;9.046;2024-01-16T12:24:37;1.70;80.20
44705;DHT22;30431;48.520;9.046;2024-01-16T12:27:07;1.70;81.20
44705;DHT22;30431;48.520;9.046;2024-01-16T12:29:35;1.70;79.70
44705;DHT22;30431;48.520;9.046;2024-01-16T12:32:10;1.70;80.20
44705;DHT22;30431;48.520;9.046;2024-01-16T12:34:46;1.80;80.10
44705;DHT22;30431;48.520;9.046;2024-01-16T12:37:15;1.80;80.90
44705;DHT22;30431;48.520;9.046;2024-01-16T12:39:42;1.90;80.40
44705;DHT22;30431;48.520;9.046;2024-01-16T12:42:10;1.90;81.70
44705;DHT22;30431;48.520;9.046;2024-01-16T12:44:38;1.90;80.80
44705;DHT22;30431;48.520;9.046;2024-01-16T12:47:06;1.90;81.30
44705;DHT22;30431;48.520;9.046;2024-01-16T12:49:42;1.90;80.60
44705;DHT22;30431;48.520;9.046;2024-01-16T12:52:22;2.00;80.00
44705;DHT22;30431;48.520;9.046;2024-01-16T12:55:01;2.00;80.90
44705;DHT22;30431;48.520;9.046;2024-01-16T12:57:32;2.00;80.50
44705;DHT22;30431;48.520;9.046;2024-01-16T12:59:59;2.00;80.80
44705;DHT22;30431;48.520;9.046;2024-01-16T13:02:31;2.10;81.30
44705;DHT22;30431;48.520;9.046;2024-01-16T13:05:03;2.10;81.00
44705;DHT22;30431;48.520;9.046;2024-01-16T13:07:31;2.10;79.80
44705;DHT22;30431;48.520;9.046;2024-01-16T13:10:26;2.20;78.20
44705;DHT22;30431;48.520;9.046;2024-01-16T13:13:11;2.20;79.60
44705;DHT22;30431;48.520;9.046;2024-01-16T13:15:44;2.30;78.60
44705;DHT22;30431;48.520;9.046;2024-01-16T13:18:21;2.40;77.50
44705;DHT22;30431;48.520;9.046;2024-01-16T13:20:49;2.40;78.30
44705;DHT22;30431;48.520;9.046;2024-01-16T13:23:18;2.40;78.30
44705;DHT22;30431;48.520;9.046;2024-01-16T13:25:46;2.40;79.10
44705;DHT22;30431;48.520;9.046;2024-01-16T13:28:17;2.50;77.60
44705;DHT22;30431;48.520;9.046;2024-01-16T13:30:46;2.50;77.00
44705;DHT22;30431;48.520;9.046;2024-01-16T13:33:14;2.50;77.90
44705;DHT22;30431;48.520;9.046;2024-01-16T13:35:44;2.50;77.30
44705;DHT22;30431;48.520;9.046;2024-01-16T13:38:16;2.50;77.80
44705;DHT22;30431;48.520;9.046;2024-01-16T13:40:43;2.50;76.00
44705;DHT22;30431;48.520;9.046;2024-01-16T13:43:13;2.40;76.00
44705;DHT22;30431;48.520;9.046;2024-01-16T13:45:44;2.40;77.00
44705;DHT22;30431;48.520;9.046;2024-01-16T13:48:28;2.40;78.10
44705;DHT22;30431;48.520;9.046;2024-01-16T13:50:55;2.40;76.50
44705;DHT22;30431;48.520;9.046;2024-01-16T13:53:22;2.40;76.10
44705;DHT22;30431;48.520;9.046;2024-01-16T13:55:55;2.40;76.30
44705;DHT22;30431;48.520;9.046;2024-01-16T13:58:22;2.40;76.50
44705;DHT22;30431;48.520;9.046;2024-01-16T14:00:51;2.30;77.80
44705;DHT22;30431;48.520;9.046;2024-01-16T14:03:20;2.30;76.50
44705;DHT22;30431;48.520;9.046;2024-01-16T14:05:51;2.30;76.70
44705;DHT22;30431;48.520;9.046;2024-01-16T14:08:18;2.30;77.50
44705;DHT22;30431;48.520;9.046;2024-01-16T14:10:45;2.30;78.30
44705;DHT22;30431;48.520;9.046;2024-01-16T14:13:14;2.20;77.00
44705;DHT22;30431;48.520;9.046;2024-01-16T14:15:41;2.20;78.40
44705;DHT22;30431;48.520;9.046;2024-01-16T14:18:10;2.20;77.70
44705;DHT22;30431;48.520;9.046;2024-01-16T14:20:38;2.20;77.40
44705;DHT22;30431;48.520;9.046;2024-01-16T14:23:05;2.20;79.20
44705;DHT22;30431;48.520;9.046;2024-01-16T14:25:32;2.20;79.50
44705;DHT22;30431;48.520;9.046;2024-01-16T14:28:03;2.20;79.90
44705;DHT22;30431;48.520;9.046;2024-01-16T14:30:37;2.10;78.70
44705;DHT22;30431;48.520;9.046;2024-01-16T14:33:08;2.10;78.90
44705;DHT22;30431;48.520;9.046;2024-01-16T14:35:38;2.10;78.00
44705;DHT22;30431;48.520;9.046;2024-01-16T14:38:08;2.10;79.00
44705;DHT22;30431;48.520;9.046;2024-01-16T14:40:35;2.00;79.60
44705;DHT22;30431;48.520;9.046;2024-01-16T14:43:02;2.00;80.10
44705;DHT22;30431;48.520;9.046;2024-01-16T14:45:33;1.90;80.20
44705;DHT22;30431;48.520;9.046;2024-01-16T14:48:02;1.90;80.30
44705;DHT22;30431;48.520;9.046;2024-01-16T14:50:31;1.90;79.50
44705;DHT22;30431;48.520;9.046;2024-01-16T14:52:58;1.80;79.60
44705;DHT22;30431;48.520;9.046;2024-01-16T14:55:25;1.80;80.00
44705;DHT22;30431;48.520;9.046;2024-01-16T14:57:53;1.80;80.00
44705;DHT22;30431;48.520;9.046;2024-01-16T15:00:26;1.70;79.90
44705;DHT22;30431;48.520;9.046;2024-01-16T15:02:56;1.70;80.40
44705;DHT22;30431;48.520;9.046;2024-01-16T15:05:24;1.60;80.60
44705;DHT22;30431;48.520;9.046;2024-01-16T15:07:51;1.50;81.00
44705;DHT22;30431;48.520;9.046;2024-01-16T15:10:21;1.50;81.00
44705;DHT22;30431;48.520;9.046;2024-01-16T15:12:49;1.40;81.60
44705;DHT22;30431;48.520;9.046;2024-01-16T15:15:18;1.40;82.70
44705;DHT22;30431;48.520;9.046;2024-01-16T15:17:45;1.30;82.30
44705;DHT22;30431;48.520;9.046;2024-01-16T15:20:12;1.20;82.60
44705;DHT22;30431;48.520;9.046;2024-01-16T15:22:40;1.10;83.10
44705;DHT22;30431;48.520;9.046;2024-01-16T15:25:13;1.00;83.80
44705;DHT22;30431;48.520;9.046;2024-01-16T15:27:42;0.90;84.30
44705;DHT22;30431;48.520;9.046;2024-01-16T15:30:13;0.90;84.40
44705;DHT22;30431;48.520;9.046;2024-01-16T15:32:41;0.70;84.80
44705;DHT22;30431;48.520;9.046;2024-01-16T15:35:08;0.70;86.30
44705;DHT22;30431;48.520;9.046;2024-01-16T15:37:39;0.60;86.70
44705;DHT22;30431;48.520;9.046;2024-01-16T15:40:08;0.50;86.30
44705;DHT22;30431;48.520;9.046;2024-01-16T15:42:35;0.50;84.90
44705;DHT22;30431;48.520;9.046;2024-01-16T15:45:03;0.40;86.30
44705;DHT22;30431;48.520;9.046;2024-01-16T15:47:36;0.30;87.60
44705;DHT22;30431;48.520;9.046;2024-01-16T15:50:04;0.20;88.50
44705;DHT22;30431;48.520;9.046;2024-01-16T15:52:32;0.10;89.10
44705;DHT22;30431;48.520;9.046;2024-01-16T15:54:59;0.00;89.80
44705;DHT22;30431;48.520;9.046;2024-01-16T15:57:26;-0.10;90.10
44705;DHT22;30431;48.520;9.046;2024-01-16T15:59:53;-0.20;90.30
44705;DHT22;30431;48.520;9.046;2024-01-16T16:02:20;-0.30;90.50
44705;DHT22;30431;48.520;9.046;2024-01-16T16:04:48;-0.40;90.80
44705;DHT22;30431;48.520;9.046;2024-01-16T16:07:15;-0.40;91.10